Time;durP1;ratioP1;P1;durP2;ratioP2;P2;SDS_P1;SDS_P2;PMS_P1;PMS_P2;Temp;Humidity;BMP_temperature;BMP_pressure;BME280_temperature;BME280_humidity;BME280_pressure;Samples;Min_cycle;Max_cycle;Signal;HPM_P1;HPM_P2
2022/03/04 00:01:36;;;;;;;12.53;7.93;;;0.60;99.90;;;;;;5200231;28;20217;-50
2022/03/04 00:04:09;;;;;;;15.90;9.17;;;0.60;99.90;;;;;;5198565;28;20223;-51
2022/03/04 00:06:39;;;;;;;15.80;7.23;;;0.60;99.90;;;;;;5203075;28;20195;-50
2022/03/04 00:09:10;;;;;;;10.83;7.60;;;0.60;99.90;;;;;;5202465;28;20518;-49
2022/03/04 00:11:41;;;;;;;13.93;7.83;;;0.70;99.90;;;;;;5195526;28;20214;-50
2022/03/04 00:14:12;;;;;;;14.43;8.13;;;0.70;99.90;;;;;;5200768;28;20181;-50
2022/03/04 00:16:42;;;;;;;14.30;8.40;;;0.70;99.90;;;;;;5199328;28;20537;-50
2022/03/04 00:19:13;;;;;;;17.03;7.43;;;0.60;99.90;;;;;;5200516;28;20617;-50
2022/03/04 00:21:47;;;;;;;12.13;7.90;;;0.60;99.90;;;;;;5203811;28;20188;-50
2022/03/04 00:24:19;;;;;;;15.50;8.67;;;0.60;99.90;;;;;;5201324;28;20230;-51
2022/03/04 00:26:50;;;;;;;9.90;7.50;;;0.60;99.90;;;;;;5211906;22;20596;-48
2022/03/04 00:29:20;;;;;;;19.50;8.00;;;0.60;99.90;;;;;;5205186;28;20513;-47
2022/03/04 00:31:51;;;;;;;12.03;7.53;;;0.70;99.90;;;;;;5207799;28;20481;-47
2022/03/04 00:34:21;;;;;;;19.53;8.70;;;0.70;99.90;;;;;;5206015;28;20256;-47
2022/03/04 00:36:52;;;;;;;11.77;7.70;;;0.70;99.90;;;;;;5208683;28;20552;-48
2022/03/04 00:39:23;;;;;;;11.93;8.40;;;0.60;99.90;;;;;;5207013;28;20249;-50
2022/03/04 00:41:53;;;;;;;18.33;9.30;;;0.60;99.90;;;;;;5208790;28;20207;-48
2022/03/04 00:44:24;;;;;;;17.27;9.27;;;0.60;99.90;;;;;;5208348;28;20211;-48
2022/03/04 00:46:54;;;;;;;16.60;9.77;;;0.60;99.90;;;;;;5203874;28;20614;-48
2022/03/04 00:49:25;;;;;;;11.80;8.90;;;0.60;99.90;;;;;;5208184;28;20183;-48
2022/03/04 00:51:55;;;;;;;14.60;8.67;;;0.60;99.90;;;;;;5206294;28;20179;-48
2022/03/04 00:54:26;;;;;;;14.77;8.67;;;0.60;99.90;;;;;;5206217;28;20221;-47
2022/03/04 00:56:57;;;;;;;13.60;7.97;;;0.60;99.90;;;;;;5204801;28;20294;-49
2022/03/04 00:59:27;;;;;;;14.87;9.70;;;0.70;99.90;;;;;;5204860;28;20703;-48
2022/03/04 01:01:58;;;;;;;20.80;9.73;;;0.70;99.90;;;;;;5200643;28;20279;-49
2022/03/04 01:04:28;;;;;;;17.43;10.10;;;0.70;99.90;;;;;;5204674;28;20171;-47
2022/03/04 01:06:59;;;;;;;25.73;10.50;;;0.60;99.90;;;;;;5206302;28;20210;-47
2022/03/04 01:09:29;;;;;;;37.80;12.77;;;0.60;99.90;;;;;;5203323;28;20191;-50
2022/03/04 01:12:00;;;;;;;31.77;13.60;;;0.50;99.90;;;;;;5200556;28;20266;-48
2022/03/04 01:14:31;;;;;;;44.00;13.33;;;0.50;99.90;;;;;;5206274;28;20182;-47
2022/03/04 01:17:02;;;;;;;36.17;13.13;;;0.50;99.90;;;;;;5203048;28;20204;-48
2022/03/04 01:19:32;;;;;;;27.67;12.97;;;0.50;99.90;;;;;;5188412;28;20430;-47
2022/03/04 01:22:03;;;;;;;25.13;12.10;;;0.40;99.90;;;;;;5207301;28;20207;-47
2022/03/04 01:24:33;;;;;;;35.13;15.00;;;0.40;99.90;;;;;;5188782;28;20649;-47
2022/03/04 01:27:04;;;;;;;36.80;14.27;;;0.50;99.90;;;;;;5204835;28;20273;-48
2022/03/04 01:29:34;;;;;;;34.13;14.97;;;0.50;99.90;;;;;;5204229;28;20556;-47
2022/03/04 01:32:05;;;;;;;52.37;18.70;;;0.50;99.90;;;;;;5205276;28;20556;-48
2022/03/04 01:34:36;;;;;;;53.23;18.40;;;0.60;99.90;;;;;;5206721;28;20180;-49
2022/03/04 01:37:08;;;;;;;48.13;18.80;;;0.50;99.90;;;;;;5207277;28;20203;-48
2022/03/04 01:39:38;;;;;;;49.10;18.30;;;0.60;99.90;;;;;;5205031;28;20317;-50
2022/03/04 01:42:09;;;;;;;70.23;20.17;;;0.60;99.90;;;;;;5204377;28;20498;-47
2022/03/04 01:44:40;;;;;;;55.17;17.87;;;0.60;99.90;;;;;;5199713;28;20187;-48
2022/03/04 01:47:10;;;;;;;59.40;19.63;;;0.60;99.90;;;;;;5205195;28;20253;-48
2022/03/04 01:49:41;;;;;;;51.23;19.30;;;0.60;99.90;;;;;;5189112;28;20543;-48
2022/03/04 01:52:12;;;;;;;50.03;19.00;;;0.60;99.90;;;;;;5205796;28;20184;-49
2022/03/04 01:54:43;;;;;;;42.50;16.70;;;0.60;99.90;;;;;;5207420;28;20188;-47
2022/03/04 01:57:13;;;;;;;54.17;18.80;;;0.60;99.90;;;;;;5206066;28;20227;-47
2022/03/04 01:59:44;;;;;;;50.63;16.87;;;0.60;99.90;;;;;;5203828;28;20195;-48
2022/03/04 02:02:15;;;;;;;52.27;16.57;;;0.60;99.90;;;;;;5203767;28;20493;-47
2022/03/04 02:04:48;;;;;;;44.37;16.10;;;0.60;99.90;;;;;;5202646;28;20188;-49
2022/03/04 02:07:18;;;;;;;50.63;16.60;;;0.60;99.90;;;;;;5200798;28;20280;-46
2022/03/04 02:09:49;;;;;;;41.53;16.40;;;0.60;99.90;;;;;;5207128;28;20580;-47
2022/03/04 02:12:19;;;;;;;61.40;17.60;;;0.60;99.90;;;;;;5205906;28;20551;-47
2022/03/04 02:14:50;;;;;;;56.87;16.93;;;0.60;99.90;;;;;;5202074;28;20214;-47
2022/03/04 02:17:20;;;;;;;64.23;14.90;;;0.60;99.90;;;;;;5205003;28;20215;-47
2022/03/04 02:19:53;;;;;;;57.63;16.67;;;0.60;99.90;;;;;;5206405;28;20180;-47
2022/03/04 02:22:24;;;;;;;43.30;15.00;;;0.60;99.90;;;;;;5206268;28;20285;-48
2022/03/04 02:24:54;;;;;;;44.67;15.10;;;0.60;99.90;;;;;;5206763;28;20466;-47
2022/03/04 02:27:25;;;;;;;47.00;14.30;;;0.70;99.90;;;;;;5203338;28;20475;-47
2022/03/04 02:29:55;;;;;;;42.63;14.17;;;0.70;99.90;;;;;;5203553;28;20231;-47
2022/03/04 02:32:26;;;;;;;35.03;12.17;;;0.80;99.90;;;;;;5206294;28;20531;-46
2022/03/04 02:34:57;;;;;;;37.63;13.03;;;0.80;99.90;;;;;;5206544;28;20191;-47
2022/03/04 02:37:28;;;;;;;34.13;13.43;;;0.80;99.90;;;;;;5202799;28;20246;-48
2022/03/04 02:39:58;;;;;;;40.80;10.67;;;0.80;99.90;;;;;;5204100;28;20476;-49
2022/03/04 02:42:29;;;;;;;27.07;10.40;;;0.80;99.90;;;;;;5201899;28;20526;-47
2022/03/04 02:44:59;;;;;;;43.53;11.67;;;0.90;99.90;;;;;;5203460;28;20727;-47
2022/03/04 02:47:30;;;;;;;28.20;10.60;;;0.90;99.90;;;;;;5203367;28;20213;-47
2022/03/04 02:50:00;;;;;;;23.77;10.23;;;0.90;99.90;;;;;;5205936;28;20180;-48
2022/03/04 02:52:31;;;;;;;33.27;10.90;;;0.80;99.90;;;;;;5201248;28;20195;-47
2022/03/04 02:55:02;;;;;;;41.40;11.87;;;0.80;99.90;;;;;;5205850;28;20270;-47
2022/03/04 02:57:32;;;;;;;26.67;10.23;;;0.80;99.90;;;;;;5205001;28;20251;-48
2022/03/04 03:00:04;;;;;;;26.80;9.63;;;0.90;99.90;;;;;;5203326;28;20470;-50
2022/03/04 03:02:35;;;;;;;21.37;9.60;;;0.90;99.90;;;;;;5204991;28;20257;-47
2022/03/04 03:05:06;;;;;;;23.77;9.70;;;0.90;99.90;;;;;;5205559;28;20867;-49
2022/03/04 03:07:37;;;;;;;20.00;8.80;;;1.10;99.90;;;;;;5202098;28;20207;-48
2022/03/04 03:10:09;;;;;;;18.80;9.30;;;1.00;99.90;;;;;;5202285;28;20280;-47
2022/03/04 03:12:41;;;;;;;29.67;8.60;;;1.10;99.90;;;;;;5201781;28;20452;-47
2022/03/04 03:15:12;;;;;;;17.90;8.07;;;1.00;99.90;;;;;;5203951;28;20489;-47
2022/03/04 03:17:43;;;;;;;19.50;7.60;;;1.10;99.90;;;;;;5200781;28;20486;-48
2022/03/04 03:20:13;;;;;;;12.07;6.80;;;1.10;99.90;;;;;;5201419;28;20479;-48
2022/03/04 03:22:44;;;;;;;14.57;6.57;;;1.10;99.90;;;;;;5201872;28;20285;-47
2022/03/04 03:25:14;;;;;;;10.53;5.40;;;1.10;99.90;;;;;;5203101;28;20193;-49
2022/03/04 03:27:45;;;;;;;9.30;5.53;;;1.10;99.90;;;;;;5204931;28;20625;-47
2022/03/04 03:30:16;;;;;;;10.17;4.67;;;1.10;99.90;;;;;;5204319;28;20229;-47
2022/03/04 03:32:46;;;;;;;17.03;6.97;;;1.10;99.90;;;;;;5218287;28;20187;-50
2022/03/04 03:35:17;;;;;;;14.83;6.43;;;1.00;99.90;;;;;;5205607;28;20196;-47
2022/03/04 03:37:47;;;;;;;13.53;7.23;;;1.10;99.90;;;;;;5204712;28;20211;-48
2022/03/04 03:40:18;;;;;;;23.77;9.37;;;1.10;99.90;;;;;;5199328;28;20188;-50
2022/03/04 03:42:49;;;;;;;19.93;8.80;;;1.10;99.90;;;;;;5200207;28;20668;-47
2022/03/04 03:45:19;;;;;;;21.90;8.70;;;1.10;99.90;;;;;;5203071;28;20540;-47
2022/03/04 03:47:50;;;;;;;19.80;9.40;;;1.10;99.90;;;;;;5205861;28;20207;-48
2022/03/04 03:50:21;;;;;;;28.30;9.53;;;1.10;99.90;;;;;;5204858;28;20178;-47
2022/03/04 03:52:52;;;;;;;26.97;8.93;;;1.20;99.90;;;;;;5204813;28;20461;-47
2022/03/04 03:55:22;;;;;;;26.50;11.13;;;1.10;99.90;;;;;;5204351;28;20189;-47
2022/03/04 03:57:53;;;;;;;20.13;9.80;;;1.20;99.90;;;;;;5205750;28;20215;-49
2022/03/04 04:00:23;;;;;;;35.03;10.70;;;1.20;99.90;;;;;;5202594;28;20188;-48
2022/03/04 04:02:54;;;;;;;22.63;9.90;;;1.10;99.90;;;;;;5202343;28;20308;-47
2022/03/04 04:05:25;;;;;;;28.13;11.93;;;1.10;99.90;;;;;;5188647;28;20549;-49
2022/03/04 04:07:55;;;;;;;25.37;11.53;;;1.20;99.90;;;;;;5206688;28;20642;-50
2022/03/04 04:10:26;;;;;;;25.67;10.80;;;1.10;99.90;;;;;;5206493;28;20238;-50
2022/03/04 04:12:56;;;;;;;25.10;11.53;;;1.10;99.90;;;;;;5207169;28;20176;-47
2022/03/04 04:15:27;;;;;;;21.93;11.50;;;1.10;99.90;;;;;;5206028;28;20659;-47
2022/03/04 04:17:57;;;;;;;21.73;11.30;;;1.10;99.90;;;;;;5205558;28;20206;-47
2022/03/04 04:20:28;;;;;;;26.77;11.00;;;1.10;99.90;;;;;;5204374;28;20199;-47
2022/03/04 04:22:59;;;;;;;20.30;10.60;;;1.10;99.90;;;;;;5201687;28;20295;-50
2022/03/04 04:25:29;;;;;;;25.10;10.80;;;1.10;99.90;;;;;;5204107;28;20188;-48
2022/03/04 04:28:00;;;;;;;24.50;11.03;;;1.10;99.90;;;;;;5206206;28;20574;-48
2022/03/04 04:30:30;;;;;;;28.40;10.70;;;1.10;99.90;;;;;;5205487;28;20188;-48
2022/03/04 04:33:01;;;;;;;30.13;12.00;;;1.20;99.90;;;;;;5203984;28;20249;-47
2022/03/04 04:35:32;;;;;;;20.83;10.30;;;1.20;99.90;;;;;;5207109;28;20199;-47
2022/03/04 04:38:02;;;;;;;26.03;12.33;;;1.20;99.90;;;;;;5205995;28;20222;-49
2022/03/04 04:40:33;;;;;;;24.77;11.33;;;1.20;99.90;;;;;;5202775;28;20184;-49
2022/03/04 04:43:03;;;;;;;27.40;10.70;;;1.20;99.90;;;;;;5205928;28;20215;-49
2022/03/04 04:45:34;;;;;;;22.60;9.93;;;1.30;99.90;;;;;;5205318;28;20187;-48
2022/03/04 04:48:05;;;;;;;27.70;11.00;;;1.40;99.90;;;;;;5201909;28;20687;-49
2022/03/04 04:50:35;;;;;;;25.90;11.00;;;1.40;99.90;;;;;;5206979;28;20652;-47
2022/03/04 04:53:06;;;;;;;23.10;9.93;;;1.40;99.90;;;;;;5206041;28;20184;-47
2022/03/04 04:55:36;;;;;;;23.70;9.70;;;1.50;99.90;;;;;;5205202;28;20771;-47
2022/03/04 04:58:07;;;;;;;19.17;10.43;;;1.50;99.90;;;;;;5206501;28;20295;-47
2022/03/04 05:00:38;;;;;;;16.47;8.80;;;1.50;99.90;;;;;;5202625;28;20183;-48
2022/03/04 05:03:08;;;;;;;18.60;9.27;;;1.60;99.90;;;;;;5205926;28;20290;-48
2022/03/04 05:05:40;;;;;;;21.40;8.73;;;1.60;99.90;;;;;;5219026;28;20590;-49
2022/03/04 05:08:10;;;;;;;19.87;8.53;;;1.60;99.90;;;;;;5222525;28;20193;-48
2022/03/04 05:10:41;;;;;;;11.50;7.77;;;1.50;99.90;;;;;;5204004;28;20946;-48
2022/03/04 05:13:13;;;;;;;8.73;5.77;;;1.40;99.90;;;;;;5205364;28;20199;-47
2022/03/04 05:15:43;;;;;;;9.87;5.60;;;1.40;99.90;;;;;;5207520;28;20438;-48
2022/03/04 05:18:14;;;;;;;7.13;4.87;;;1.40;99.90;;;;;;5206472;28;20475;-48
2022/03/04 05:20:45;;;;;;;8.93;5.10;;;1.30;99.90;;;;;;5200633;28;20221;-47
2022/03/04 05:23:58;;;;;;;13.20;4.90;;;1.40;99.90;;;;;;5219251;28;20239;-49
2022/03/04 05:26:06;;;;;;;5.50;4.00;;;1.30;99.90;;;;;;5205371;28;20255;-47
2022/03/04 05:28:36;;;;;;;11.30;4.50;;;1.30;99.90;;;;;;5202349;28;20468;-48
2022/03/04 05:31:07;;;;;;;13.07;4.93;;;1.30;99.90;;;;;;5204579;28;20263;-47
2022/03/04 05:33:37;;;;;;;17.13;4.30;;;1.40;99.90;;;;;;5203720;28;20183;-48
2022/03/04 05:36:08;;;;;;;8.50;4.13;;;1.40;99.90;;;;;;5203647;28;20585;-48
2022/03/04 05:38:38;;;;;;;7.70;4.97;;;1.40;99.90;;;;;;5195972;28;20184;-47
2022/03/04 05:41:09;;;;;;;7.33;4.50;;;1.50;99.90;;;;;;5195587;28;20191;-48
2022/03/04 05:43:40;;;;;;;4.87;3.20;;;1.50;99.90;;;;;;5200758;28;20231;-49
2022/03/04 05:46:11;;;;;;;8.87;5.00;;;1.50;99.90;;;;;;5201323;28;20515;-49
2022/03/04 05:48:41;;;;;;;5.13;3.90;;;1.50;99.90;;;;;;5205111;28;20552;-48
2022/03/04 05:51:12;;;;;;;9.17;4.73;;;1.60;99.90;;;;;;5221015;28;21034;-48
2022/03/04 05:53:43;;;;;;;11.20;4.57;;;1.60;99.90;;;;;;5205204;28;20211;-47
2022/03/04 05:56:14;;;;;;;5.17;4.60;;;1.60;99.90;;;;;;5203806;28;20869;-47
2022/03/04 05:58:45;;;;;;;4.30;3.47;;;1.60;99.90;;;;;;5200617;28;20442;-47
2022/03/04 06:01:16;;;;;;;6.00;3.80;;;1.70;99.90;;;;;;5199731;28;20212;-49
2022/03/04 06:03:47;;;;;;;6.23;3.83;;;1.70;99.90;;;;;;5200442;28;21027;-49
2022/03/04 06:06:17;;;;;;;7.00;4.17;;;1.70;99.90;;;;;;5197940;28;20192;-47
2022/03/04 06:08:48;;;;;;;5.90;3.07;;;1.70;99.90;;;;;;5196735;28;20615;-48
2022/03/04 06:11:19;;;;;;;6.10;3.80;;;1.70;99.90;;;;;;5203248;28;20172;-47
2022/03/04 06:13:49;;;;;;;3.40;3.10;;;1.70;99.90;;;;;;5197243;28;20439;-48
2022/03/04 06:16:20;;;;;;;5.30;3.50;;;1.80;99.90;;;;;;5199994;28;20250;-49
2022/03/04 06:18:51;;;;;;;7.60;4.17;;;1.80;99.90;;;;;;5203723;28;20269;-49
2022/03/04 06:21:22;;;;;;;3.67;3.23;;;1.90;99.90;;;;;;5203955;28;20177;-48
2022/03/04 06:23:52;;;;;;;6.40;3.53;;;1.90;99.90;;;;;;5219953;28;20456;-47
2022/03/04 06:26:23;;;;;;;5.60;3.10;;;1.90;99.90;;;;;;5200639;28;20648;-47
2022/03/04 06:28:53;;;;;;;7.17;3.10;;;2.00;99.90;;;;;;5202153;28;20192;-48
2022/03/04 06:31:24;;;;;;;9.20;3.77;;;1.90;99.90;;;;;;5201930;28;20188;-48
2022/03/04 06:33:54;;;;;;;5.40;3.13;;;1.80;99.90;;;;;;5203001;28;20406;-48
2022/03/04 06:36:25;;;;;;;3.43;2.47;;;1.90;99.90;;;;;;5194711;28;20206;-49
2022/03/04 06:38:55;;;;;;;5.07;3.03;;;1.90;99.90;;;;;;5195741;28;20544;-50
2022/03/04 06:41:26;;;;;;;3.23;2.50;;;2.00;99.90;;;;;;5202409;28;20670;-50
2022/03/04 06:43:57;;;;;;;2.70;2.50;;;2.00;99.90;;;;;;5199414;28;20294;-48
2022/03/04 06:46:27;;;;;;;7.43;2.90;;;2.00;99.90;;;;;;5200059;28;20238;-47
2022/03/04 06:48:58;;;;;;;10.27;2.70;;;2.10;99.90;;;;;;5199622;28;20269;-48
2022/03/04 06:51:29;;;;;;;3.27;2.53;;;2.10;99.90;;;;;;5200115;28;20452;-49
2022/03/04 06:53:59;;;;;;;12.07;2.97;;;2.10;99.90;;;;;;5201691;28;20652;-49
2022/03/04 06:56:30;;;;;;;6.50;3.00;;;2.20;99.90;;;;;;5176389;28;20289;-48
2022/03/04 06:59:00;;;;;;;4.60;2.33;;;2.20;99.90;;;;;;5199821;28;20519;-49
2022/03/04 07:01:31;;;;;;;6.20;2.27;;;2.10;99.90;;;;;;5199858;28;20180;-48
2022/03/04 07:04:02;;;;;;;3.83;2.70;;;2.10;99.90;;;;;;5216376;28;20207;-50
2022/03/04 07:06:32;;;;;;;2.83;2.50;;;2.10;99.90;;;;;;5200422;28;20203;-48
2022/03/04 07:09:04;;;;;;;9.07;2.83;;;2.10;99.90;;;;;;5200869;28;20175;-48
2022/03/04 07:11:34;;;;;;;6.17;2.80;;;2.10;99.90;;;;;;5203245;28;20184;-48
2022/03/04 07:14:05;;;;;;;3.30;2.50;;;2.20;99.90;;;;;;5203149;28;20442;-48
2022/03/04 07:16:35;;;;;;;3.73;2.63;;;2.20;99.90;;;;;;5195577;28;20234;-47
2022/03/04 07:19:07;;;;;;;5.47;2.60;;;2.30;99.90;;;;;;5203351;28;20191;-50
2022/03/04 07:21:37;;;;;;;5.00;2.83;;;2.30;99.90;;;;;;5202012;28;20499;-49
2022/03/04 07:24:08;;;;;;;3.70;2.87;;;2.40;99.90;;;;;;5199298;28;20467;-51
2022/03/04 07:26:38;;;;;;;3.63;2.60;;;2.30;99.90;;;;;;5199389;28;20699;-48
2022/03/04 07:29:09;;;;;;;3.57;2.80;;;2.40;99.90;;;;;;5199915;28;20179;-48
2022/03/04 07:31:39;;;;;;;4.07;2.90;;;2.50;99.90;;;;;;5201387;28;20184;-50
2022/03/04 07:34:10;;;;;;;3.40;2.53;;;2.60;99.90;;;;;;5197742;28;20187;-47
2022/03/04 07:36:41;;;;;;;3.00;2.67;;;2.60;99.90;;;;;;5202805;28;20293;-47
2022/03/04 07:39:11;;;;;;;7.23;2.93;;;2.60;99.90;;;;;;5200586;28;20192;-48
2022/03/04 07:41:42;;;;;;;4.67;3.20;;;2.70;99.90;;;;;;5201115;28;20180;-48
2022/03/04 07:44:13;;;;;;;3.77;3.40;;;2.80;99.90;;;;;;5202651;28;20199;-48
2022/03/04 07:46:43;;;;;;;9.67;3.77;;;2.90;99.90;;;;;;5201593;28;20534;-48
2022/03/04 07:49:14;;;;;;;4.27;3.00;;;2.80;99.90;;;;;;5216977;28;20225;-47
2022/03/04 07:51:45;;;;;;;5.40;3.00;;;2.80;99.90;;;;;;5202191;28;20196;-49
2022/03/04 07:54:18;;;;;;;9.93;3.10;;;2.80;99.90;;;;;;5199906;28;20255;-48
2022/03/04 07:56:48;;;;;;;8.13;2.63;;;2.90;99.90;;;;;;5199962;28;20202;-49
2022/03/04 07:59:19;;;;;;;4.40;3.20;;;3.00;99.90;;;;;;5201260;28;20414;-50
2022/03/04 08:01:50;;;;;;;4.90;2.90;;;3.10;99.90;;;;;;5199667;28;20314;-49
2022/03/04 08:04:20;;;;;;;14.10;3.30;;;3.10;99.90;;;;;;5201643;28;20706;-48
2022/03/04 08:06:51;;;;;;;6.73;3.50;;;3.20;99.90;;;;;;5200800;28;20268;-48
2022/03/04 08:09:21;;;;;;;4.67;2.63;;;3.50;99.90;;;;;;5177850;28;20190;-48
2022/03/04 08:11:53;;;;;;;5.47;3.20;;;3.50;99.90;;;;;;5201928;28;20175;-50
2022/03/04 08:14:23;;;;;;;10.33;3.03;;;3.50;99.90;;;;;;5196855;28;20176;-48
2022/03/04 08:16:54;;;;;;;9.43;3.73;;;3.50;99.90;;;;;;5200298;28;20439;-48
2022/03/04 08:19:24;;;;;;;12.33;4.00;;;3.50;99.90;;;;;;5190756;28;20197;-50
2022/03/04 08:21:55;;;;;;;5.27;3.00;;;3.20;99.90;;;;;;5200828;28;20196;-48
2022/03/04 08:24:25;;;;;;;8.73;3.10;;;3.00;99.90;;;;;;5201422;28;20628;-48
2022/03/04 08:26:56;;;;;;;10.50;3.70;;;3.00;99.90;;;;;;5219187;28;20283;-48
2022/03/04 08:29:26;;;;;;;7.50;2.93;;;2.80;99.90;;;;;;5201811;28;20253;-48
2022/03/04 08:31:57;;;;;;;5.23;4.07;;;2.70;99.90;;;;;;5201051;28;20201;-50
2022/03/04 08:34:27;;;;;;;5.97;4.23;;;2.60;99.90;;;;;;5201152;28;20655;-48
2022/03/04 08:36:58;;;;;;;8.47;4.10;;;2.50;99.90;;;;;;5201773;28;20274;-49
2022/03/04 08:39:29;;;;;;;7.13;4.50;;;2.50;99.90;;;;;;5198996;28;20184;-47
2022/03/04 08:41:59;;;;;;;5.63;4.90;;;2.50;99.90;;;;;;5218321;28;20278;-48
2022/03/04 08:44:30;;;;;;;6.50;4.57;;;2.40;99.90;;;;;;5200439;28;20172;-50
2022/03/04 08:47:00;;;;;;;5.07;4.57;;;2.30;99.90;;;;;;5200446;28;20291;-48
2022/03/04 08:49:31;;;;;;;9.13;4.00;;;2.40;99.90;;;;;;5172259;28;20187;-48
2022/03/04 08:52:01;;;;;;;8.27;4.20;;;2.40;99.90;;;;;;5202945;28;20187;-48
2022/03/04 08:54:32;;;;;;;5.00;3.20;;;2.50;99.90;;;;;;5203697;28;20230;-49
2022/03/04 08:57:03;;;;;;;5.10;3.27;;;2.50;99.90;;;;;;5219957;28;20204;-47
2022/03/04 08:59:33;;;;;;;4.30;2.93;;;2.60;99.90;;;;;;5201516;28;20517;-49
2022/03/04 09:02:05;;;;;;;3.47;2.77;;;2.70;99.90;;;;;;5203751;28;20496;-49
2022/03/04 09:04:35;;;;;;;8.73;2.50;;;2.90;99.90;;;;;;5203566;28;20187;-49
2022/03/04 09:07:07;;;;;;;4.97;2.50;;;3.00;99.90;;;;;;5203143;28;20450;-48
2022/03/04 09:09:38;;;;;;;3.97;2.23;;;3.10;99.90;;;;;;5203641;28;20259;-48
2022/03/04 09:12:09;;;;;;;4.33;2.63;;;3.20;99.90;;;;;;5203780;28;20506;-48
2022/03/04 09:14:40;;;;;;;7.67;3.10;;;3.00;99.90;;;;;;5203346;28;20195;-48
2022/03/04 09:17:11;;;;;;;3.17;2.97;;;3.00;99.90;;;;;;5202783;28;20466;-49
2022/03/04 09:19:41;;;;;;;7.83;4.10;;;3.10;99.90;;;;;;5197603;28;20188;-47
2022/03/04 09:22:12;;;;;;;7.33;3.93;;;3.20;99.90;;;;;;5201970;28;20171;-50
2022/03/04 09:24:42;;;;;;;3.23;2.90;;;3.30;99.90;;;;;;5202299;28;20800;-49
2022/03/04 09:27:13;;;;;;;6.57;2.67;;;3.60;99.90;;;;;;5199377;28;20250;-47
2022/03/04 09:29:45;;;;;;;7.13;2.90;;;3.90;99.90;;;;;;5189009;28;20179;-49
2022/03/04 09:32:16;;;;;;;3.00;2.80;;;4.10;99.90;;;;;;5203287;28;20186;-49
2022/03/04 09:34:47;;;;;;;8.80;3.70;;;4.20;99.90;;;;;;5204086;28;20906;-50
2022/03/04 09:37:17;;;;;;;5.10;3.17;;;4.40;99.90;;;;;;5203070;28;20791;-50
2022/03/04 09:39:48;;;;;;;5.50;2.47;;;4.70;99.90;;;;;;5202626;28;20855;-47
2022/03/04 09:42:21;;;;;;;3.60;3.13;;;4.90;99.90;;;;;;5204950;28;20652;-48
2022/03/04 09:44:51;;;;;;;5.50;2.87;;;5.00;99.90;;;;;;5202608;28;20179;-47
2022/03/04 09:47:23;;;;;;;3.00;2.73;;;4.90;99.90;;;;;;5205081;28;20464;-49
2022/03/04 09:49:54;;;;;;;4.23;2.80;;;4.80;99.90;;;;;;5202411;28;20184;-49
2022/03/04 09:52:25;;;;;;;6.53;3.10;;;4.90;99.90;;;;;;5202404;28;20450;-49
2022/03/04 09:54:56;;;;;;;5.73;3.10;;;4.70;99.90;;;;;;5202453;28;20435;-48
2022/03/04 09:57:26;;;;;;;3.20;2.90;;;4.60;99.90;;;;;;5204908;28;20279;-51
2022/03/04 09:59:57;;;;;;;4.60;2.23;;;4.40;99.90;;;;;;5184287;28;20415;-49
2022/03/04 10:02:33;;;;;;;4.93;2.37;;;4.00;99.90;;;;;;5205248;28;20290;-49
2022/03/04 10:05:04;;;;;;;3.77;2.77;;;3.80;99.90;;;;;;5201910;28;20307;-49
2022/03/04 10:07:40;;;;;;;3.67;3.33;;;3.70;99.90;;;;;;5203293;28;20764;-50
2022/03/04 10:10:16;;;;;;;3.50;3.23;;;3.70;99.90;;;;;;5203394;28;20426;-49
2022/03/04 10:12:48;;;;;;;3.60;3.30;;;3.90;99.90;;;;;;5204157;28;20455;-49
2022/03/04 10:15:19;;;;;;;5.53;2.90;;;3.90;99.90;;;;;;5202093;28;20800;-49
2022/03/04 10:18:02;;;;;;;2.60;2.40;;;3.80;99.90;;;;;;5185091;28;20458;-49
2022/03/04 10:20:39;;;;;;;2.67;2.40;;;3.80;99.90;;;;;;5202383;28;20529;-49
2022/03/04 10:23:17;;;;;;;3.13;2.90;;;3.70;99.90;;;;;;5201837;28;20493;-49
2022/03/04 10:25:52;;;;;;;4.93;3.70;;;3.70;99.90;;;;;;5197906;28;20807;-47
2022/03/04 10:28:27;;;;;;;3.93;2.70;;;3.80;99.90;;;;;;5195885;28;20465;-50
2022/03/04 10:30:58;;;;;;;3.60;3.30;;;3.90;99.90;;;;;;5197988;28;20430;-54
2022/03/04 10:33:29;;;;;;;3.50;3.30;;;3.90;99.90;;;;;;5199189;28;20588;-49
2022/03/04 10:36:11;;;;;;;3.83;3.63;;;4.00;99.90;;;;;;5202372;28;20521;-49
2022/03/04 10:38:42;;;;;;;4.90;3.90;;;3.90;99.90;;;;;;5198884;28;20473;-48
2022/03/04 10:41:29;;;;;;;3.90;3.70;;;3.90;99.90;;;;;;5200455;28;20466;-47
2022/03/04 10:44:01;;;;;;;4.37;4.03;;;3.90;99.90;;;;;;5186739;28;20249;-49
2022/03/04 10:46:58;;;;;;;4.13;3.83;;;3.80;99.90;;;;;;5203530;28;20446;-50
2022/03/04 10:49:30;;;;;;;3.90;3.37;;;3.80;99.90;;;;;;5200993;28;21004;-47
2022/03/04 10:52:08;;;;;;;7.10;4.47;;;3.70;99.90;;;;;;5205022;28;20510;-49
2022/03/04 10:54:49;;;;;;;6.33;4.90;;;3.70;99.90;;;;;;5186561;28;20426;-50
2022/03/04 10:57:20;;;;;;;5.27;4.77;;;3.90;99.90;;;;;;5203202;28;20464;-47
2022/03/04 10:59:58;;;;;;;4.80;4.00;;;4.00;99.90;;;;;;5203314;28;20418;-50
2022/03/04 11:02:44;;;;;;;7.47;5.00;;;4.00;99.90;;;;;;5197463;28;20556;-48
2022/03/04 11:05:15;;;;;;;5.07;4.67;;;4.00;99.90;;;;;;5198018;28;20431;-50
2022/03/04 11:07:47;;;;;;;14.50;5.43;;;4.20;99.90;;;;;;5195603;28;20465;-49
2022/03/04 11:10:21;;;;;;;7.63;5.10;;;4.30;99.90;;;;;;5201670;28;20445;-48
2022/03/04 11:12:55;;;;;;;10.27;5.60;;;4.20;99.90;;;;;;5217119;28;20949;-48
2022/03/04 11:15:25;;;;;;;7.13;5.00;;;4.10;99.90;;;;;;5201358;28;20458;-48
2022/03/04 11:17:57;;;;;;;14.23;5.47;;;4.10;99.90;;;;;;5202334;28;20446;-50
2022/03/04 11:20:28;;;;;;;5.23;4.80;;;4.10;99.90;;;;;;5218214;28;20639;-48
2022/03/04 11:22:59;;;;;;;6.67;5.77;;;4.10;99.90;;;;;;5200877;28;20464;-51
2022/03/04 11:25:41;;;;;;;5.70;5.30;;;4.30;99.90;;;;;;5202071;28;20175;-48
2022/03/04 11:28:17;;;;;;;6.30;5.73;;;4.40;99.90;;;;;;5201893;28;20833;-50
2022/03/04 11:30:51;;;;;;;7.73;5.20;;;4.40;99.90;;;;;;5201083;28;20422;-48
2022/03/04 11:33:29;;;;;;;5.50;4.77;;;4.40;99.90;;;;;;5198910;28;20505;-48
2022/03/04 11:36:13;;;;;;;5.10;4.80;;;4.50;98.20;;;;;;5201443;28;20442;-48
2022/03/04 11:38:44;;;;;;;7.07;4.90;;;4.50;97.10;;;;;;5198607;28;21002;-48
2022/03/04 11:41:27;;;;;;;7.23;4.50;;;4.40;97.40;;;;;;5199969;28;20446;-49
2022/03/04 11:44:07;;;;;;;5.00;4.60;;;4.40;97.50;;;;;;5188120;28;20250;-48
2022/03/04 11:47:05;;;;;;;5.40;4.93;;;4.40;97.20;;;;;;5198033;28;20468;-51
2022/03/04 11:49:38;;;;;;;5.03;4.70;;;4.40;97.50;;;;;;5198130;28;20926;-56
2022/03/04 11:52:12;;;;;;;11.03;5.50;;;4.60;97.40;;;;;;5196535;28;20433;-48
2022/03/04 11:54:48;;;;;;;5.20;4.87;;;4.80;96.00;;;;;;5218560;28;20434;-47
2022/03/04 11:57:30;;;;;;;11.10;5.50;;;4.90;95.80;;;;;;5204173;28;20458;-47
2022/03/04 12:00:22;;;;;;;6.20;5.60;;;5.20;95.30;;;;;;5199033;28;20987;-49
2022/03/04 12:02:55;;;;;;;5.50;5.03;;;5.40;93.00;;;;;;5196227;28;20495;-50
2022/03/04 12:05:32;;;;;;;14.23;5.50;;;5.70;93.50;;;;;;5194811;28;20440;-50
2022/03/04 12:08:03;;;;;;;6.13;5.47;;;5.80;91.00;;;;;;5197419;28;20543;-53
2022/03/04 12:10:50;;;;;;;8.17;5.07;;;5.90;89.80;;;;;;5199979;28;20530;-49
2022/03/04 12:13:24;;;;;;;3.97;3.87;;;5.70;85.90;;;;;;5196542;28;20525;-48
2022/03/04 12:16:00;;;;;;;5.63;5.13;;;5.40;90.00;;;;;;5198201;28;20532;-50
2022/03/04 12:18:35;;;;;;;11.27;4.40;;;5.10;92.60;;;;;;5177000;28;20496;-50
2022/03/04 12:21:31;;;;;;;4.03;3.73;;;5.10;93.70;;;;;;5195352;28;20442;-50
2022/03/04 12:24:04;;;;;;;12.00;4.23;;;5.20;93.20;;;;;;5195229;28;20468;-47
2022/03/04 12:26:43;;;;;;;3.57;3.33;;;5.10;93.10;;;;;;5199631;28;20453;-59
2022/03/04 12:29:15;;;;;;;6.83;3.40;;;5.00;93.10;;;;;;5199849;28;20433;-48
2022/03/04 12:31:45;;;;;;;3.63;3.23;;;4.90;93.80;;;;;;5199462;28;20430;-48
2022/03/04 12:34:22;;;;;;;3.37;3.07;;;5.00;94.40;;;;;;5199542;28;20423;-48
2022/03/04 12:36:55;;;;;;;3.87;3.10;;;5.20;92.00;;;;;;5200588;28;20227;-48
2022/03/04 12:39:25;;;;;;;2.67;2.57;;;5.20;90.40;;;;;;5214620;28;20440;-48
2022/03/04 12:41:56;;;;;;;3.53;3.23;;;5.10;89.10;;;;;;5199084;28;20485;-51
2022/03/04 12:44:30;;;;;;;11.30;2.60;;;5.10;88.80;;;;;;5201097;28;20215;-48
2022/03/04 12:47:00;;;;;;;5.43;3.50;;;4.90;86.30;;;;;;5199967;28;20451;-49
2022/03/04 12:49:33;;;;;;;3.40;3.20;;;4.90;86.50;;;;;;5199209;28;20565;-49
2022/03/04 12:52:03;;;;;;;3.33;3.10;;;4.70;87.40;;;;;;5204220;28;20180;-50
2022/03/04 12:54:34;;;;;;;3.20;3.00;;;4.60;90.10;;;;;;5199628;28;20434;-49
2022/03/04 12:57:06;;;;;;;7.90;3.17;;;4.60;90.70;;;;;;5203875;28;20210;-46
2022/03/04 12:59:48;;;;;;;2.70;2.50;;;4.80;89.50;;;;;;5197811;28;20185;-48
2022/03/04 13:02:19;;;;;;;3.23;3.00;;;4.90;87.30;;;;;;5206191;28;20782;-49
2022/03/04 13:05:00;;;;;;;7.80;2.93;;;5.10;84.80;;;;;;5201003;28;20500;-49
2022/03/04 13:07:32;;;;;;;3.87;3.10;;;5.10;78.90;;;;;;5194129;28;20469;-50
2022/03/04 13:10:05;;;;;;;3.50;3.20;;;5.00;77.70;;;;;;5204414;28;20426;-49
2022/03/04 13:12:36;;;;;;;5.73;3.47;;;5.10;78.10;;;;;;5189766;28;20445;-48
2022/03/04 13:15:11;;;;;;;3.67;3.30;;;5.20;78.40;;;;;;5198836;28;20444;-49